sensor_id;sensor_type;location;lat;lon;timestamp;P1;durP1;ratioP1;P2;durP2;ratioP2
3726;SDS011;1879;45.876;12.300;2022-11-20T00:01:26;8.37;;;7.17;;
3726;SDS011;1879;45.876;12.300;2022-11-20T00:03:54;8.73;;;7.83;;
3726;SDS011;1879;45.876;12.300;2022-11-20T00:06:24;7.40;;;6.63;;
3726;SDS011;1879;45.876;12.300;2022-11-20T00:08:53;7.60;;;6.87;;
3726;SDS011;1879;45.876;12.300;2022-11-20T00:11:22;7.50;;;6.80;;
3726;SDS011;1879;45.876;12.300;2022-11-20T00:13:51;7.50;;;6.80;;
3726;SDS011;1879;45.876;12.300;2022-11-20T00:16:20;8.20;;;7.40;;
3726;SDS011;1879;45.876;12.300;2022-11-20T00:18:49;7.37;;;6.67;;
3726;SDS011;1879;45.876;12.300;2022-11-20T00:21:17;7.83;;;6.93;;
3726;SDS011;1879;45.876;12.300;2022-11-20T00:23:47;7.47;;;6.77;;
3726;SDS011;1879;45.876;12.300;2022-11-20T00:26:15;7.60;;;6.90;;
3726;SDS011;1879;45.876;12.300;2022-11-20T00:28:43;7.67;;;6.97;;
3726;SDS011;1879;45.876;12.300;2022-11-20T00:31:14;7.20;;;6.50;;
3726;SDS011;1879;45.876;12.300;2022-11-20T00:33:43;7.13;;;6.53;;
3726;SDS011;1879;45.876;12.300;2022-11-20T00:36:11;7.07;;;6.43;;
3726;SDS011;1879;45.876;12.300;2022-11-20T00:38:40;7.57;;;6.80;;
3726;SDS011;1879;45.876;12.300;2022-11-20T00:41:10;9.30;;;6.83;;
3726;SDS011;1879;45.876;12.300;2022-11-20T00:43:38;8.50;;;6.93;;
3726;SDS011;1879;45.876;12.300;2022-11-20T00:46:06;8.87;;;7.40;;
3726;SDS011;1879;45.876;12.300;2022-11-20T00:48:34;7.90;;;7.10;;
3726;SDS011;1879;45.876;12.300;2022-11-20T00:51:01;6.87;;;6.17;;
3726;SDS011;1879;45.876;12.300;2022-11-20T00:53:28;8.07;;;7.27;;
3726;SDS011;1879;45.876;12.300;2022-11-20T00:55:56;7.30;;;6.70;;
3726;SDS011;1879;45.876;12.300;2022-11-20T00:58:28;7.80;;;7.10;;
3726;SDS011;1879;45.876;12.300;2022-11-20T01:00:59;8.80;;;7.30;;
3726;SDS011;1879;45.876;12.300;2022-11-20T01:03:27;8.30;;;7.60;;
3726;SDS011;1879;45.876;12.300;2022-11-20T01:05:59;7.77;;;7.00;;
3726;SDS011;1879;45.876;12.300;2022-11-20T01:08:28;8.20;;;7.00;;
3726;SDS011;1879;45.876;12.300;2022-11-20T01:10:58;8.13;;;7.30;;
3726;SDS011;1879;45.876;12.300;2022-11-20T01:13:28;8.40;;;7.60;;
3726;SDS011;1879;45.876;12.300;2022-11-20T01:16:05;9.03;;;7.73;;
3726;SDS011;1879;45.876;12.300;2022-11-20T01:18:33;7.70;;;7.00;;
3726;SDS011;1879;45.876;12.300;2022-11-20T01:21:02;8.53;;;7.63;;
3726;SDS011;1879;45.876;12.300;2022-11-20T01:23:30;7.93;;;7.13;;
3726;SDS011;1879;45.876;12.300;2022-11-20T01:25:59;11.73;;;8.00;;
3726;SDS011;1879;45.876;12.300;2022-11-20T01:28:29;9.60;;;7.83;;
3726;SDS011;1879;45.876;12.300;2022-11-20T01:30:57;9.10;;;7.77;;
3726;SDS011;1879;45.876;12.300;2022-11-20T01:33:24;7.70;;;6.90;;
3726;SDS011;1879;45.876;12.300;2022-11-20T01:35:52;9.30;;;8.40;;
3726;SDS011;1879;45.876;12.300;2022-11-20T01:38:19;7.97;;;6.87;;
3726;SDS011;1879;45.876;12.300;2022-11-20T01:40:53;8.03;;;6.70;;
3726;SDS011;1879;45.876;12.300;2022-11-20T01:43:22;8.27;;;7.47;;
3726;SDS011;1879;45.876;12.300;2022-11-20T01:45:56;8.27;;;7.17;;
3726;SDS011;1879;45.876;12.300;2022-11-20T01:48:33;8.07;;;7.30;;
3726;SDS011;1879;45.876;12.300;2022-11-20T01:51:03;8.07;;;7.23;;
3726;SDS011;1879;45.876;12.300;2022-11-20T01:53:37;6.80;;;6.20;;
3726;SDS011;1879;45.876;12.300;2022-11-20T01:56:05;7.30;;;6.60;;
3726;SDS011;1879;45.876;12.300;2022-11-20T01:58:35;8.47;;;6.87;;
3726;SDS011;1879;45.876;12.300;2022-11-20T02:01:07;7.30;;;5.77;;
3726;SDS011;1879;45.876;12.300;2022-11-20T02:03:36;6.97;;;6.30;;
3726;SDS011;1879;45.876;12.300;2022-11-20T02:06:05;6.60;;;5.87;;
3726;SDS011;1879;45.876;12.300;2022-11-20T02:08:36;8.17;;;6.93;;
3726;SDS011;1879;45.876;12.300;2022-11-20T02:11:04;7.67;;;6.40;;
3726;SDS011;1879;45.876;12.300;2022-11-20T02:13:32;7.00;;;6.40;;
3726;SDS011;1879;45.876;12.300;2022-11-20T02:16:10;7.40;;;6.47;;
3726;SDS011;1879;45.876;12.300;2022-11-20T02:18:40;6.97;;;6.37;;
3726;SDS011;1879;45.876;12.300;2022-11-20T02:21:09;7.87;;;6.40;;
3726;SDS011;1879;45.876;12.300;2022-11-20T02:26:39;7.40;;;6.47;;
3726;SDS011;1879;45.876;12.300;2022-11-20T02:29:10;8.23;;;6.30;;
3726;SDS011;1879;45.876;12.300;2022-11-20T02:31:38;7.50;;;6.80;;
3726;SDS011;1879;45.876;12.300;2022-11-20T02:34:07;6.40;;;5.80;;
3726;SDS011;1879;45.876;12.300;2022-11-20T02:36:35;6.43;;;5.83;;
3726;SDS011;1879;45.876;12.300;2022-11-20T02:39:04;6.23;;;5.63;;
3726;SDS011;1879;45.876;12.300;2022-11-20T02:41:34;5.67;;;5.07;;
3726;SDS011;1879;45.876;12.300;2022-11-20T02:44:03;6.87;;;6.27;;
3726;SDS011;1879;45.876;12.300;2022-11-20T02:46:31;6.77;;;6.17;;
3726;SDS011;1879;45.876;12.300;2022-11-20T02:48:58;5.73;;;5.23;;
3726;SDS011;1879;45.876;12.300;2022-11-20T02:51:26;6.10;;;5.47;;
3726;SDS011;1879;45.876;12.300;2022-11-20T02:53:53;5.70;;;5.10;;
3726;SDS011;1879;45.876;12.300;2022-11-20T02:56:20;8.30;;;5.80;;
3726;SDS011;1879;45.876;12.300;2022-11-20T02:58:49;5.70;;;5.20;;
3726;SDS011;1879;45.876;12.300;2022-11-20T03:01:16;5.60;;;5.10;;
3726;SDS011;1879;45.876;12.300;2022-11-20T03:03:43;5.83;;;5.33;;
3726;SDS011;1879;45.876;12.300;2022-11-20T03:06:10;6.67;;;5.60;;
3726;SDS011;1879;45.876;12.300;2022-11-20T03:08:37;5.73;;;5.23;;
3726;SDS011;1879;45.876;12.300;2022-11-20T03:11:04;6.60;;;5.50;;
3726;SDS011;1879;45.876;12.300;2022-11-20T03:13:32;8.10;;;5.60;;
3726;SDS011;1879;45.876;12.300;2022-11-20T03:16:06;6.60;;;5.60;;
3726;SDS011;1879;45.876;12.300;2022-11-20T03:18:34;7.00;;;5.50;;
3726;SDS011;1879;45.876;12.300;2022-11-20T03:21:02;6.27;;;5.67;;
3726;SDS011;1879;45.876;12.300;2022-11-20T03:23:30;6.23;;;5.63;;
3726;SDS011;1879;45.876;12.300;2022-11-20T03:26:08;5.73;;;5.23;;
3726;SDS011;1879;45.876;12.300;2022-11-20T03:28:36;6.73;;;6.07;;
3726;SDS011;1879;45.876;12.300;2022-11-20T03:31:09;4.50;;;4.10;;
3726;SDS011;1879;45.876;12.300;2022-11-20T03:33:37;6.10;;;5.50;;
3726;SDS011;1879;45.876;12.300;2022-11-20T03:36:05;6.30;;;5.60;;
3726;SDS011;1879;45.876;12.300;2022-11-20T03:38:33;7.47;;;5.40;;
3726;SDS011;1879;45.876;12.300;2022-11-20T03:41:00;5.50;;;5.00;;
3726;SDS011;1879;45.876;12.300;2022-11-20T03:43:28;4.87;;;4.47;;
3726;SDS011;1879;45.876;12.300;2022-11-20T03:45:56;5.77;;;4.57;;
3726;SDS011;1879;45.876;12.300;2022-11-20T03:48:24;4.77;;;4.37;;
3726;SDS011;1879;45.876;12.300;2022-11-20T03:50:51;5.57;;;4.97;;
3726;SDS011;1879;45.876;12.300;2022-11-20T03:53:19;4.67;;;4.27;;
3726;SDS011;1879;45.876;12.300;2022-11-20T03:55:50;5.70;;;4.77;;
3726;SDS011;1879;45.876;12.300;2022-11-20T03:58:17;5.13;;;4.63;;
3726;SDS011;1879;45.876;12.300;2022-11-20T04:00:44;4.63;;;4.23;;
3726;SDS011;1879;45.876;12.300;2022-11-20T04:03:12;5.07;;;4.30;;
3726;SDS011;1879;45.876;12.300;2022-11-20T04:05:40;6.20;;;5.10;;
3726;SDS011;1879;45.876;12.300;2022-11-20T04:08:07;5.20;;;4.70;;
3726;SDS011;1879;45.876;12.300;2022-11-20T04:10:34;5.60;;;5.10;;
3726;SDS011;1879;45.876;12.300;2022-11-20T04:13:01;6.97;;;6.27;;
3726;SDS011;1879;45.876;12.300;2022-11-20T04:15:28;6.20;;;5.60;;
3726;SDS011;1879;45.876;12.300;2022-11-20T04:17:55;6.20;;;4.93;;
3726;SDS011;1879;45.876;12.300;2022-11-20T04:20:22;5.77;;;5.03;;
3726;SDS011;1879;45.876;12.300;2022-11-20T04:22:53;5.40;;;4.97;;
3726;SDS011;1879;45.876;12.300;2022-11-20T04:25:20;5.73;;;5.23;;
3726;SDS011;1879;45.876;12.300;2022-11-20T04:27:47;5.23;;;4.73;;
3726;SDS011;1879;45.876;12.300;2022-11-20T04:30:14;5.30;;;4.80;;
3726;SDS011;1879;45.876;12.300;2022-11-20T04:32:42;4.57;;;4.17;;
3726;SDS011;1879;45.876;12.300;2022-11-20T04:35:08;5.30;;;4.80;;
3726;SDS011;1879;45.876;12.300;2022-11-20T04:37:35;5.30;;;4.80;;
3726;SDS011;1879;45.876;12.300;2022-11-20T04:40:04;5.57;;;5.07;;
3726;SDS011;1879;45.876;12.300;2022-11-20T04:42:32;5.07;;;4.57;;
3726;SDS011;1879;45.876;12.300;2022-11-20T04:44:59;5.63;;;4.80;;
3726;SDS011;1879;45.876;12.300;2022-11-20T04:47:26;4.40;;;4.00;;
3726;SDS011;1879;45.876;12.300;2022-11-20T04:49:53;5.73;;;4.50;;
3726;SDS011;1879;45.876;12.300;2022-11-20T04:52:20;4.73;;;4.33;;
3726;SDS011;1879;45.876;12.300;2022-11-20T04:54:47;5.20;;;4.70;;
3726;SDS011;1879;45.876;12.300;2022-11-20T04:57:15;4.90;;;4.43;;
3726;SDS011;1879;45.876;12.300;2022-11-20T04:59:42;6.03;;;4.53;;
3726;SDS011;1879;45.876;12.300;2022-11-20T05:02:09;5.37;;;4.77;;
3726;SDS011;1879;45.876;12.300;2022-11-20T05:04:37;5.07;;;4.47;;
3726;SDS011;1879;45.876;12.300;2022-11-20T05:07:03;6.07;;;5.47;;
3726;SDS011;1879;45.876;12.300;2022-11-20T05:09:30;5.67;;;5.10;;
3726;SDS011;1879;45.876;12.300;2022-11-20T05:11:57;5.40;;;4.87;;
3726;SDS011;1879;45.876;12.300;2022-11-20T05:14:26;6.10;;;5.40;;
3726;SDS011;1879;45.876;12.300;2022-11-20T05:16:53;5.50;;;5.00;;
3726;SDS011;1879;45.876;12.300;2022-11-20T05:19:20;5.30;;;4.73;;
3726;SDS011;1879;45.876;12.300;2022-11-20T05:21:47;5.73;;;5.23;;
3726;SDS011;1879;45.876;12.300;2022-11-20T05:24:14;6.97;;;5.10;;
3726;SDS011;1879;45.876;12.300;2022-11-20T05:26:41;7.63;;;5.17;;
3726;SDS011;1879;45.876;12.300;2022-11-20T05:29:09;6.10;;;5.37;;
3726;SDS011;1879;45.876;12.300;2022-11-20T05:31:38;5.60;;;5.10;;
3726;SDS011;1879;45.876;12.300;2022-11-20T05:34:06;5.90;;;5.40;;
3726;SDS011;1879;45.876;12.300;2022-11-20T05:36:33;5.63;;;5.13;;
3726;SDS011;1879;45.876;12.300;2022-11-20T05:39:00;6.00;;;5.40;;
3726;SDS011;1879;45.876;12.300;2022-11-20T05:41:27;6.00;;;5.40;;
3726;SDS011;1879;45.876;12.300;2022-11-20T05:43:55;5.60;;;5.07;;
3726;SDS011;1879;45.876;12.300;2022-11-20T05:46:23;5.60;;;5.10;;
3726;SDS011;1879;45.876;12.300;2022-11-20T05:48:51;5.97;;;5.40;;
3726;SDS011;1879;45.876;12.300;2022-11-20T05:51:18;6.27;;;5.37;;
3726;SDS011;1879;45.876;12.300;2022-11-20T05:53:46;5.30;;;4.80;;
3726;SDS011;1879;45.876;12.300;2022-11-20T05:56:13;5.67;;;5.17;;
3726;SDS011;1879;45.876;12.300;2022-11-20T05:58:41;6.80;;;4.80;;
3726;SDS011;1879;45.876;12.300;2022-11-20T06:01:10;5.40;;;4.23;;
3726;SDS011;1879;45.876;12.300;2022-11-20T06:03:38;5.63;;;5.13;;
3726;SDS011;1879;45.876;12.300;2022-11-20T06:06:09;5.97;;;5.47;;
3726;SDS011;1879;45.876;12.300;2022-11-20T06:08:36;7.70;;;6.93;;
3726;SDS011;1879;45.876;12.300;2022-11-20T06:11:03;6.80;;;6.10;;
3726;SDS011;1879;45.876;12.300;2022-11-20T06:13:31;6.87;;;6.23;;
3726;SDS011;1879;45.876;12.300;2022-11-20T06:15:58;7.50;;;6.80;;
3726;SDS011;1879;45.876;12.300;2022-11-20T06:18:25;8.07;;;6.77;;
3726;SDS011;1879;45.876;12.300;2022-11-20T06:20:59;8.07;;;7.27;;
3726;SDS011;1879;45.876;12.300;2022-11-20T06:23:29;7.73;;;6.97;;
3726;SDS011;1879;45.876;12.300;2022-11-20T06:25:56;8.43;;;7.63;;
3726;SDS011;1879;45.876;12.300;2022-11-20T06:28:26;8.67;;;7.77;;
3726;SDS011;1879;45.876;12.300;2022-11-20T06:30:53;8.53;;;7.73;;
3726;SDS011;1879;45.876;12.300;2022-11-20T06:33:20;8.23;;;7.37;;
3726;SDS011;1879;45.876;12.300;2022-11-20T06:35:47;10.10;;;9.20;;
3726;SDS011;1879;45.876;12.300;2022-11-20T06:38:14;10.33;;;7.73;;
3726;SDS011;1879;45.876;12.300;2022-11-20T06:40:42;10.13;;;9.03;;
3726;SDS011;1879;45.876;12.300;2022-11-20T06:43:10;8.27;;;7.47;;
3726;SDS011;1879;45.876;12.300;2022-11-20T06:45:37;8.90;;;8.10;;
3726;SDS011;1879;45.876;12.300;2022-11-20T06:48:04;8.07;;;7.37;;
3726;SDS011;1879;45.876;12.300;2022-11-20T06:50:32;8.60;;;7.67;;
3726;SDS011;1879;45.876;12.300;2022-11-20T06:53:00;8.43;;;7.63;;
3726;SDS011;1879;45.876;12.300;2022-11-20T06:55:28;10.00;;;8.27;;
3726;SDS011;1879;45.876;12.300;2022-11-20T06:57:57;10.40;;;9.40;;
3726;SDS011;1879;45.876;12.300;2022-11-20T07:00:24;9.70;;;8.80;;
3726;SDS011;1879;45.876;12.300;2022-11-20T07:02:51;9.17;;;8.37;;
3726;SDS011;1879;45.876;12.300;2022-11-20T07:05:18;9.70;;;8.80;;
3726;SDS011;1879;45.876;12.300;2022-11-20T07:07:45;8.97;;;8.27;;
3726;SDS011;1879;45.876;12.300;2022-11-20T07:10:12;9.87;;;8.93;;
3726;SDS011;1879;45.876;12.300;2022-11-20T07:12:42;9.70;;;8.80;;
3726;SDS011;1879;45.876;12.300;2022-11-20T07:15:16;10.43;;;9.53;;
3726;SDS011;1879;45.876;12.300;2022-11-20T07:17:43;9.83;;;8.93;;
3726;SDS011;1879;45.876;12.300;2022-11-20T07:20:10;9.77;;;8.97;;
3726;SDS011;1879;45.876;12.300;2022-11-20T07:22:38;10.60;;;9.63;;
3726;SDS011;1879;45.876;12.300;2022-11-20T07:25:05;21.00;;;19.00;;
3726;SDS011;1879;45.876;12.300;2022-11-20T07:27:33;11.77;;;10.77;;
3726;SDS011;1879;45.876;12.300;2022-11-20T07:30:00;11.40;;;10.40;;
3726;SDS011;1879;45.876;12.300;2022-11-20T07:32:29;13.20;;;12.00;;
3726;SDS011;1879;45.876;12.300;2022-11-20T07:34:56;11.13;;;10.13;;
3726;SDS011;1879;45.876;12.300;2022-11-20T07:37:23;11.73;;;10.70;;
3726;SDS011;1879;45.876;12.300;2022-11-20T07:39:50;14.77;;;13.37;;
3726;SDS011;1879;45.876;12.300;2022-11-20T07:42:17;11.90;;;10.77;;
3726;SDS011;1879;45.876;12.300;2022-11-20T07:44:43;11.77;;;10.67;;
3726;SDS011;1879;45.876;12.300;2022-11-20T07:47:10;12.43;;;11.30;;
3726;SDS011;1879;45.876;12.300;2022-11-20T07:49:39;13.90;;;12.57;;
3726;SDS011;1879;45.876;12.300;2022-11-20T07:52:06;13.33;;;12.20;;
3726;SDS011;1879;45.876;12.300;2022-11-20T07:54:33;14.83;;;13.07;;
3726;SDS011;1879;45.876;12.300;2022-11-20T07:57:00;19.37;;;17.30;;
3726;SDS011;1879;45.876;12.300;2022-11-20T07:59:27;15.50;;;13.90;;
3726;SDS011;1879;45.876;12.300;2022-11-20T08:01:53;20.00;;;17.10;;
3726;SDS011;1879;45.876;12.300;2022-11-20T08:04:21;23.43;;;19.43;;
3726;SDS011;1879;45.876;12.300;2022-11-20T08:06:51;20.60;;;18.13;;
3726;SDS011;1879;45.876;12.300;2022-11-20T08:09:18;18.07;;;15.30;;
3726;SDS011;1879;45.876;12.300;2022-11-20T08:11:45;10.70;;;9.60;;
3726;SDS011;1879;45.876;12.300;2022-11-20T08:14:29;10.00;;;9.10;;
3726;SDS011;1879;45.876;12.300;2022-11-20T08:16:56;9.53;;;8.63;;
3726;SDS011;1879;45.876;12.300;2022-11-20T08:19:24;9.73;;;8.80;;
3726;SDS011;1879;45.876;12.300;2022-11-20T08:21:52;8.87;;;8.07;;
3726;SDS011;1879;45.876;12.300;2022-11-20T08:24:19;11.13;;;8.20;;
3726;SDS011;1879;45.876;12.300;2022-11-20T08:26:46;8.53;;;7.73;;
3726;SDS011;1879;45.876;12.300;2022-11-20T08:29:13;7.60;;;6.93;;
3726;SDS011;1879;45.876;12.300;2022-11-20T08:31:40;11.90;;;10.33;;
3726;SDS011;1879;45.876;12.300;2022-11-20T08:34:07;12.27;;;11.03;;
3726;SDS011;1879;45.876;12.300;2022-11-20T08:36:34;12.87;;;11.23;;
3726;SDS011;1879;45.876;12.300;2022-11-20T08:39:03;26.33;;;18.80;;
3726;SDS011;1879;45.876;12.300;2022-11-20T08:41:30;35.40;;;25.70;;
3726;SDS011;1879;45.876;12.300;2022-11-20T08:43:58;26.67;;;21.87;;
3726;SDS011;1879;45.876;12.300;2022-11-20T08:46:27;17.40;;;13.67;;
3726;SDS011;1879;45.876;12.300;2022-11-20T08:48:58;16.23;;;14.53;;
3726;SDS011;1879;45.876;12.300;2022-11-20T08:51:25;15.17;;;13.67;;
3726;SDS011;1879;45.876;12.300;2022-11-20T08:53:52;7.37;;;6.73;;
3726;SDS011;1879;45.876;12.300;2022-11-20T08:56:20;6.00;;;5.50;;
3726;SDS011;1879;45.876;12.300;2022-11-20T08:58:49;5.43;;;4.90;;
3726;SDS011;1879;45.876;12.300;2022-11-20T09:01:16;4.80;;;4.40;;
3726;SDS011;1879;45.876;12.300;2022-11-20T09:03:43;5.40;;;5.00;;
3726;SDS011;1879;45.876;12.300;2022-11-20T09:06:10;5.60;;;4.37;;
3726;SDS011;1879;45.876;12.300;2022-11-20T09:08:37;5.00;;;4.60;;
3726;SDS011;1879;45.876;12.300;2022-11-20T09:11:05;4.20;;;3.77;;
3726;SDS011;1879;45.876;12.300;2022-11-20T09:13:34;6.27;;;5.43;;
3726;SDS011;1879;45.876;12.300;2022-11-20T09:16:05;5.13;;;4.70;;
3726;SDS011;1879;45.876;12.300;2022-11-20T09:18:34;5.33;;;4.40;;
3726;SDS011;1879;45.876;12.300;2022-11-20T09:21:02;5.60;;;4.37;;
3726;SDS011;1879;45.876;12.300;2022-11-20T09:23:31;4.63;;;4.23;;
3726;SDS011;1879;45.876;12.300;2022-11-20T09:26:01;4.43;;;4.07;;
3726;SDS011;1879;45.876;12.300;2022-11-20T09:28:29;4.97;;;3.93;;
3726;SDS011;1879;45.876;12.300;2022-11-20T09:30:58;4.90;;;4.37;;
3726;SDS011;1879;45.876;12.300;2022-11-20T09:33:25;4.70;;;4.30;;
3726;SDS011;1879;45.876;12.300;2022-11-20T09:35:52;4.33;;;3.93;;
3726;SDS011;1879;45.876;12.300;2022-11-20T09:38:19;4.50;;;4.10;;
3726;SDS011;1879;45.876;12.300;2022-11-20T09:40:47;5.00;;;4.37;;
3726;SDS011;1879;45.876;12.300;2022-11-20T09:43:21;3.80;;;3.50;;
3726;SDS011;1879;45.876;12.300;2022-11-20T09:45:59;3.47;;;3.17;;
3726;SDS011;1879;45.876;12.300;2022-11-20T09:48:43;3.93;;;3.53;;
3726;SDS011;1879;45.876;12.300;2022-11-20T09:51:30;4.40;;;4.00;;
3726;SDS011;1879;45.876;12.300;2022-11-20T09:54:06;3.90;;;3.50;;
3726;SDS011;1879;45.876;12.300;2022-11-20T09:56:41;5.27;;;4.87;;
3726;SDS011;1879;45.876;12.300;2022-11-20T09:59:14;4.13;;;3.73;;
3726;SDS011;1879;45.876;12.300;2022-11-20T10:01:54;4.77;;;4.37;;
3726;SDS011;1879;45.876;12.300;2022-11-20T10:04:23;4.40;;;4.00;;
3726;SDS011;1879;45.876;12.300;2022-11-20T10:06:52;4.37;;;3.97;;
3726;SDS011;1879;45.876;12.300;2022-11-20T10:09:27;4.57;;;4.20;;
3726;SDS011;1879;45.876;12.300;2022-11-20T10:12:02;9.47;;;4.33;;
3726;SDS011;1879;45.876;12.300;2022-11-20T10:14:40;5.07;;;4.60;;
3726;SDS011;1879;45.876;12.300;2022-11-20T10:17:26;5.77;;;4.77;;
3726;SDS011;1879;45.876;12.300;2022-11-20T10:20:19;4.97;;;4.40;;
3726;SDS011;1879;45.876;12.300;2022-11-20T10:22:56;5.10;;;4.47;;
3726;SDS011;1879;45.876;12.300;2022-11-20T10:25:39;5.63;;;4.97;;
3726;SDS011;1879;45.876;12.300;2022-11-20T10:28:17;5.23;;;4.73;;
3726;SDS011;1879;45.876;12.300;2022-11-20T10:30:56;5.70;;;5.10;;
3726;SDS011;1879;45.876;12.300;2022-11-20T10:33:29;4.57;;;4.17;;
3726;SDS011;1879;45.876;12.300;2022-11-20T10:36:00;5.93;;;4.63;;
3726;SDS011;1879;45.876;12.300;2022-11-20T10:38:36;4.23;;;3.83;;
3726;SDS011;1879;45.876;12.300;2022-11-20T10:41:06;5.47;;;4.10;;
3726;SDS011;1879;45.876;12.300;2022-11-20T10:43:56;4.37;;;3.97;;
3726;SDS011;1879;45.876;12.300;2022-11-20T10:46:32;3.87;;;3.57;;
3726;SDS011;1879;45.876;12.300;2022-11-20T10:49:12;4.10;;;3.80;;
3726;SDS011;1879;45.876;12.300;2022-11-20T10:51:43;4.27;;;3.87;;
3726;SDS011;1879;45.876;12.300;2022-11-20T10:54:20;4.00;;;3.60;;
3726;SDS011;1879;45.876;12.300;2022-11-20T10:56:56;5.00;;;4.10;;
3726;SDS011;1879;45.876;12.300;2022-11-20T10:59:34;5.53;;;3.83;;
3726;SDS011;1879;45.876;12.300;2022-11-20T11:02:14;4.87;;;3.97;;
3726;SDS011;1879;45.876;12.300;2022-11-20T11:04:44;6.57;;;4.17;;
3726;SDS011;1879;45.876;12.300;2022-11-20T11:07:16;4.03;;;3.73;;
3726;SDS011;1879;45.876;12.300;2022-11-20T11:09:47;5.33;;;4.27;;
3726;SDS011;1879;45.876;12.300;2022-11-20T11:12:15;4.90;;;4.50;;
3726;SDS011;1879;45.876;12.300;2022-11-20T11:14:43;3.80;;;3.50;;
3726;SDS011;1879;45.876;12.300;2022-11-20T11:17:19;3.20;;;3.00;;
3726;SDS011;1879;45.876;12.300;2022-11-20T11:19:58;3.70;;;3.33;;
3726;SDS011;1879;45.876;12.300;2022-11-20T11:22:26;3.23;;;2.93;;
3726;SDS011;1879;45.876;12.300;2022-11-20T11:24:54;3.30;;;3.00;;
3726;SDS011;1879;45.876;12.300;2022-11-20T11:27:21;2.97;;;2.67;;
3726;SDS011;1879;45.876;12.300;2022-11-20T11:29:48;3.00;;;2.70;;
3726;SDS011;1879;45.876;12.300;2022-11-20T11:32:17;4.43;;;3.27;;
3726;SDS011;1879;45.876;12.300;2022-11-20T11:34:59;6.53;;;3.50;;
3726;SDS011;1879;45.876;12.300;2022-11-20T11:37:28;3.60;;;2.90;;
3726;SDS011;1879;45.876;12.300;2022-11-20T11:40:01;4.77;;;3.13;;
3726;SDS011;1879;45.876;12.300;2022-11-20T11:42:30;3.57;;;2.60;;
3726;SDS011;1879;45.876;12.300;2022-11-20T11:44:58;2.90;;;2.70;;
3726;SDS011;1879;45.876;12.300;2022-11-20T11:47:31;3.17;;;2.87;;
3726;SDS011;1879;45.876;12.300;2022-11-20T11:50:07;3.30;;;3.00;;
3726;SDS011;1879;45.876;12.300;2022-11-20T11:52:46;3.70;;;3.00;;
3726;SDS011;1879;45.876;12.300;2022-11-20T11:55:19;4.50;;;2.57;;
3726;SDS011;1879;45.876;12.300;2022-11-20T11:57:59;3.43;;;3.03;;
3726;SDS011;1879;45.876;12.300;2022-11-20T12:00:35;5.20;;;3.50;;
3726;SDS011;1879;45.876;12.300;2022-11-20T12:03:08;3.60;;;2.77;;
3726;SDS011;1879;45.876;12.300;2022-11-20T12:05:43;4.43;;;2.73;;
3726;SDS011;1879;45.876;12.300;2022-11-20T12:08:15;3.93;;;2.60;;
3726;SDS011;1879;45.876;12.300;2022-11-20T12:10:48;2.97;;;2.67;;
3726;SDS011;1879;45.876;12.300;2022-11-20T12:13:21;3.30;;;2.57;;
3726;SDS011;1879;45.876;12.300;2022-11-20T12:15:58;2.60;;;2.40;;
3726;SDS011;1879;45.876;12.300;2022-11-20T12:18:26;4.10;;;3.33;;
3726;SDS011;1879;45.876;12.300;2022-11-20T12:20:59;3.20;;;2.90;;
3726;SDS011;1879;45.876;12.300;2022-11-20T12:23:40;7.30;;;4.37;;
3726;SDS011;1879;45.876;12.300;2022-11-20T12:26:19;2.97;;;2.70;;
3726;SDS011;1879;45.876;12.300;2022-11-20T12:29:00;4.90;;;3.90;;
3726;SDS011;1879;45.876;12.300;2022-11-20T12:31:39;3.10;;;2.90;;
3726;SDS011;1879;45.876;12.300;2022-11-20T12:34:20;4.23;;;3.83;;
3726;SDS011;1879;45.876;12.300;2022-11-20T12:36:59;4.70;;;2.70;;
3726;SDS011;1879;45.876;12.300;2022-11-20T12:39:35;3.13;;;2.93;;
3726;SDS011;1879;45.876;12.300;2022-11-20T12:42:18;4.60;;;2.50;;
3726;SDS011;1879;45.876;12.300;2022-11-20T12:48:36;2.73;;;1.90;;
3726;SDS011;1879;45.876;12.300;2022-11-20T12:51:34;2.10;;;1.87;;
3726;SDS011;1879;45.876;12.300;2022-11-20T12:57:34;2.47;;;2.10;;
3726;SDS011;1879;45.876;12.300;2022-11-20T13:00:11;5.43;;;2.27;;
3726;SDS011;1879;45.876;12.300;2022-11-20T13:02:46;4.50;;;2.30;;
3726;SDS011;1879;45.876;12.300;2022-11-20T13:05:31;2.73;;;2.50;;
3726;SDS011;1879;45.876;12.300;2022-11-20T13:08:03;5.30;;;2.70;;
3726;SDS011;1879;45.876;12.300;2022-11-20T13:10:37;5.00;;;2.50;;
3726;SDS011;1879;45.876;12.300;2022-11-20T13:13:14;3.10;;;2.50;;
3726;SDS011;1879;45.876;12.300;2022-11-20T13:15:50;2.53;;;2.33;;
3726;SDS011;1879;45.876;12.300;2022-11-20T13:18:24;5.00;;;2.37;;
3726;SDS011;1879;45.876;12.300;2022-11-20T13:20:51;5.80;;;2.53;;
3726;SDS011;1879;45.876;12.300;2022-11-20T13:23:24;4.47;;;2.73;;
3726;SDS011;1879;45.876;12.300;2022-11-20T13:26:03;6.20;;;4.00;;
3726;SDS011;1879;45.876;12.300;2022-11-20T13:28:32;4.53;;;3.53;;
3726;SDS011;1879;45.876;12.300;2022-11-20T13:30:59;3.27;;;2.97;;
3726;SDS011;1879;45.876;12.300;2022-11-20T13:33:28;2.93;;;2.63;;
3726;SDS011;1879;45.876;12.300;2022-11-20T13:35:58;2.93;;;2.73;;
3726;SDS011;1879;45.876;12.300;2022-11-20T13:38:27;3.00;;;2.70;;
3726;SDS011;1879;45.876;12.300;2022-11-20T13:41:07;3.43;;;2.93;;
3726;SDS011;1879;45.876;12.300;2022-11-20T13:43:48;7.10;;;2.90;;
3726;SDS011;1879;45.876;12.300;2022-11-20T13:46:15;3.73;;;3.43;;
3726;SDS011;1879;45.876;12.300;2022-11-20T13:48:49;2.83;;;2.57;;
3726;SDS011;1879;45.876;12.300;2022-11-20T13:51:24;3.67;;;3.00;;
3726;SDS011;1879;45.876;12.300;2022-11-20T13:57:04;3.53;;;2.90;;
3726;SDS011;1879;45.876;12.300;2022-11-20T13:59:43;3.40;;;3.10;;
3726;SDS011;1879;45.876;12.300;2022-11-20T14:02:20;3.47;;;3.17;;
3726;SDS011;1879;45.876;12.300;2022-11-20T14:04:48;4.27;;;3.87;;
3726;SDS011;1879;45.876;12.300;2022-11-20T14:07:19;4.43;;;3.43;;
3726;SDS011;1879;45.876;12.300;2022-11-20T14:09:50;4.00;;;3.60;;
3726;SDS011;1879;45.876;12.300;2022-11-20T14:12:22;3.60;;;3.30;;
3726;SDS011;1879;45.876;12.300;2022-11-20T14:14:50;4.97;;;3.30;;
3726;SDS011;1879;45.876;12.300;2022-11-20T14:17:18;3.63;;;3.33;;
3726;SDS011;1879;45.876;12.300;2022-11-20T14:19:46;4.63;;;3.40;;
3726;SDS011;1879;45.876;12.300;2022-11-20T14:22:18;3.90;;;3.50;;
3726;SDS011;1879;45.876;12.300;2022-11-20T14:24:45;5.47;;;4.03;;
3726;SDS011;1879;45.876;12.300;2022-11-20T14:27:13;3.77;;;3.47;;
3726;SDS011;1879;45.876;12.300;2022-11-20T14:29:42;5.40;;;3.67;;
3726;SDS011;1879;45.876;12.300;2022-11-20T14:32:10;5.50;;;3.73;;
3726;SDS011;1879;45.876;12.300;2022-11-20T14:34:38;4.17;;;3.40;;
3726;SDS011;1879;45.876;12.300;2022-11-20T14:37:09;10.20;;;4.00;;
3726;SDS011;1879;45.876;12.300;2022-11-20T14:39:40;3.87;;;3.47;;
3726;SDS011;1879;45.876;12.300;2022-11-20T14:42:14;4.60;;;4.07;;
3726;SDS011;1879;45.876;12.300;2022-11-20T14:44:43;5.27;;;4.43;;
3726;SDS011;1879;45.876;12.300;2022-11-20T14:47:11;4.80;;;4.40;;
3726;SDS011;1879;45.876;12.300;2022-11-20T14:49:39;5.70;;;5.20;;
3726;SDS011;1879;45.876;12.300;2022-11-20T14:52:11;6.50;;;5.30;;
3726;SDS011;1879;45.876;12.300;2022-11-20T14:54:43;5.20;;;4.80;;
3726;SDS011;1879;45.876;12.300;2022-11-20T14:57:20;5.77;;;5.27;;
3726;SDS011;1879;45.876;12.300;2022-11-20T14:59:48;6.57;;;5.93;;
3726;SDS011;1879;45.876;12.300;2022-11-20T15:02:16;7.07;;;5.67;;
3726;SDS011;1879;45.876;12.300;2022-11-20T15:04:46;6.27;;;5.67;;
3726;SDS011;1879;45.876;12.300;2022-11-20T15:07:23;6.63;;;5.20;;
3726;SDS011;1879;45.876;12.300;2022-11-20T15:09:59;5.10;;;4.63;;
3726;SDS011;1879;45.876;12.300;2022-11-20T15:12:26;7.23;;;5.03;;
3726;SDS011;1879;45.876;12.300;2022-11-20T15:14:55;9.90;;;7.93;;
3726;SDS011;1879;45.876;12.300;2022-11-20T15:17:22;9.70;;;7.60;;
3726;SDS011;1879;45.876;12.300;2022-11-20T15:19:50;10.47;;;8.50;;
3726;SDS011;1879;45.876;12.300;2022-11-20T15:22:17;9.93;;;8.47;;
3726;SDS011;1879;45.876;12.300;2022-11-20T15:24:45;9.40;;;8.40;;
3726;SDS011;1879;45.876;12.300;2022-11-20T15:27:12;10.60;;;8.23;;
3726;SDS011;1879;45.876;12.300;2022-11-20T15:29:39;8.47;;;7.57;;